Time;durP1;ratioP1;P1;durP2;ratioP2;P2;SDS_P1;SDS_P2;PMS_P1;PMS_P2;Temp;Humidity;BMP_temperature;BMP_pressure;BME280_temperature;BME280_humidity;BME280_pressure;Samples;Min_cycle;Max_cycle;Signal;HPM_P1;HPM_P2
2021/03/22 00:01:45;;;;;;;21.95;4.25;;;;;;;;;;4907959;28;20047;-65
2021/03/22 00:04:11;;;;;;;31.40;4.03;;;;;;;;;;4912572;28;20485;-65
2021/03/22 00:06:37;;;;;;;32.63;4.18;;;;;;;;;;4917136;29;20100;-65
2021/03/22 00:09:03;;;;;;;29.77;4.95;;;;;;;;;;4913521;28;20024;-64
2021/03/22 00:11:31;;;;;;;29.73;4.43;;;;;;;;;;4905831;28;20040;-65
2021/03/22 00:13:57;;;;;;;35.13;4.97;;;;;;;;;;4920261;28;20039;-65
2021/03/22 00:16:23;;;;;;;23.98;3.70;;;;;;;;;;4914421;28;20043;-65
2021/03/22 00:18:49;;;;;;;27.38;4.03;;;;;;;;;;4914770;29;20039;-65
2021/03/22 00:21:15;;;;;;;26.75;5.05;;;;;;;;;;4914561;28;20049;-65
2021/03/22 00:23:42;;;;;;;24.95;4.30;;;;;;;;;;4907249;29;20040;-65
2021/03/22 00:26:10;;;;;;;34.67;5.40;;;;;;;;;;4913134;28;20039;-65
2021/03/22 00:28:39;;;;;;;44.63;5.22;;;;;;;;;;4907876;29;20119;-65
2021/03/22 00:31:07;;;;;;;34.50;5.32;;;;;;;;;;4914572;28;20084;-65
2021/03/22 00:33:33;;;;;;;27.38;4.72;;;;;;;;;;4914396;29;20032;-65
2021/03/22 00:35:59;;;;;;;28.88;5.50;;;;;;;;;;4909243;28;20394;-65
2021/03/22 00:38:25;;;;;;;35.53;4.68;;;;;;;;;;4909713;28;20051;-64
2021/03/22 00:40:51;;;;;;;31.35;5.50;;;;;;;;;;4907946;28;20726;-65
2021/03/22 00:43:17;;;;;;;31.15;5.40;;;;;;;;;;4916579;28;20164;-65
2021/03/22 00:45:43;;;;;;;26.08;4.07;;;;;;;;;;4908335;29;20151;-64
2021/03/22 00:48:09;;;;;;;41.15;6.70;;;;;;;;;;4911281;28;20421;-65
2021/03/22 00:50:39;;;;;;;33.85;5.13;;;;;;;;;;4904764;28;20151;-65
2021/03/22 00:53:08;;;;;;;41.13;5.85;;;;;;;;;;4913129;28;20453;-65
2021/03/22 00:55:34;;;;;;;25.42;5.50;;;;;;;;;;4913577;28;20044;-65
2021/03/22 00:58:01;;;;;;;41.22;6.57;;;;;;;;;;4919655;28;20032;-65
2021/03/22 01:00:31;;;;;;;39.75;5.30;;;;;;;;;;4920937;23;20071;-64
2021/03/22 01:02:59;;;;;;;32.72;5.25;;;10.60;52.50;;;;;;4917567;28;20523;-65
2021/03/22 01:05:26;;;;;;;25.13;5.47;;;10.10;58.20;;;;;;4903982;28;20036;-64
2021/03/22 01:07:52;;;;;;;36.03;5.97;;;10.10;58.20;;;;;;4908701;29;20036;-64
2021/03/22 01:10:24;;;;;;;41.83;5.57;;;10.10;58.30;;;;;;4910591;29;20040;-64
2021/03/22 01:12:49;;;;;;;39.55;5.60;;;10.10;58.30;;;;;;4904122;28;21471;-64
2021/03/22 01:15:15;;;;;;;24.77;5.40;;;10.20;58.40;;;;;;4910772;28;20103;-64
2021/03/22 01:17:41;;;;;;;34.65;6.05;;;10.20;58.50;;;;;;4904840;28;20044;-64
2021/03/22 01:20:10;;;;;;;33.30;5.03;;;10.20;58.50;;;;;;4907913;28;20161;-65
2021/03/22 01:22:35;;;;;;;30.17;6.13;;;10.20;58.60;;;;;;4919653;28;20520;-64
2021/03/22 01:25:01;;;;;;;29.58;5.25;;;10.20;58.60;;;;;;4907167;28;20048;-65
2021/03/22 01:27:27;;;;;;;24.60;5.55;;;10.20;58.60;;;;;;4908927;28;20557;-62
2021/03/22 01:29:52;;;;;;;27.20;5.50;;;10.30;58.70;;;;;;4916192;28;20028;-62
2021/03/22 01:32:18;;;;;;;30.52;4.82;;;10.30;58.70;;;;;;4906090;29;20090;-62
2021/03/22 01:34:43;;;;;;;31.70;6.57;;;10.30;58.70;;;;;;4908405;28;20602;-62
2021/03/22 01:37:09;;;;;;;29.65;5.47;;;10.30;58.70;;;;;;4911651;28;20518;-62
2021/03/22 01:39:38;;;;;;;17.23;4.88;;;10.30;58.60;;;;;;4907770;28;20055;-62
2021/03/22 01:42:10;;;;;;;20.10;5.05;;;10.30;58.70;;;;;;4911997;28;20795;-62
2021/03/22 01:44:43;;;;;;;33.05;6.53;;;10.30;58.70;;;;;;4905321;29;20123;-62
2021/03/22 01:47:20;;;;;;;27.20;6.05;;;10.30;58.80;;;;;;4906950;28;20047;-62
2021/03/22 01:49:53;;;;;;;40.20;7.72;;;10.30;58.80;;;;;;4912032;28;20123;-62
2021/03/22 01:52:20;;;;;;;27.50;5.63;;;;;;;;;;4912101;28;20032;-62
2021/03/22 01:54:50;;;;;;;25.20;6.25;;;;;;;;;;4911615;28;20493;-62
2021/03/22 01:57:22;;;;;;;44.75;6.78;;;;;;;;;;4909821;28;20039;-62
2021/03/22 01:59:48;;;;;;;33.75;6.32;;;;;;;;;;4916116;28;20044;-62
2021/03/22 02:02:14;;;;;;;25.77;6.50;;;;;;;;;;4899605;28;20040;-62
2021/03/22 02:04:40;;;;;;;32.38;6.35;;;;;;;;;;4910993;28;20663;-62
2021/03/22 02:07:07;;;;;;;40.75;7.43;;;;;;;;;;4910205;28;20044;-61
2021/03/22 02:09:33;;;;;;;34.47;6.43;;;;;;;;;;4917370;28;20031;-62
2021/03/22 02:11:59;;;;;;;39.90;6.07;;;;;;;;;;4909425;28;20379;-62
2021/03/22 02:14:27;;;;;;;28.88;5.80;;;;;;;;;;4913648;28;20082;-62
2021/03/22 02:16:57;;;;;;;33.25;6.47;;;;;;;;;;4910276;28;20098;-62
2021/03/22 02:19:41;;;;;;;35.03;7.00;;;;;;;;;;4910640;28;20039;-62
2021/03/22 02:22:11;;;;;;;24.17;6.00;;;;;;;;;;4904064;28;20397;-62
2021/03/22 02:24:51;;;;;;;31.10;6.47;;;;;;;;;;4912541;28;20149;-62
2021/03/22 02:27:17;;;;;;;40.70;6.95;;;;;;;;;;4912079;28;20818;-62
2021/03/22 02:29:43;;;;;;;33.58;7.15;;;;;;;;;;4909243;28;20039;-62
2021/03/22 02:32:28;;;;;;;40.22;6.20;;;;;;;;;;4902228;28;20042;-62
2021/03/22 02:35:01;;;;;;;35.33;6.07;;;;;;;;;;4925968;29;20548;-62
2021/03/22 02:37:29;;;;;;;30.63;5.43;;;;;;;;;;4910316;29;20036;-62
2021/03/22 02:39:57;;;;;;;27.08;6.30;;;;;;;;;;4916858;28;20137;-63
2021/03/22 02:42:23;;;;;;;31.30;6.00;;;;;;;;;;4901876;28;20032;-62
2021/03/22 02:44:49;;;;;;;35.40;6.60;;;;;;;;;;4910590;28;20039;-62
2021/03/22 02:47:32;;;;;;;28.33;5.50;;;;;;;;;;4910000;28;21199;-62
2021/03/22 02:49:59;;;;;;;35.85;5.88;;;;;;;;;;4910240;28;20031;-62
2021/03/22 02:52:28;;;;;;;28.80;5.38;;;;;;;;;;4903229;29;20036;-62
2021/03/22 02:55:09;;;;;;;31.95;5.72;;;;;;;;;;4910633;28;20782;-62
2021/03/22 02:57:38;;;;;;;28.17;5.75;;;;;;;;;;4908418;28;20501;-62
2021/03/22 03:00:24;;;;;;;28.67;5.20;;;;;;;;;;4906030;28;20044;-62
2021/03/22 03:02:51;;;;;;;30.02;5.40;;;;;;;;;;4907812;28;20080;-62
2021/03/22 03:05:21;;;;;;;23.85;5.28;;;;;;;;;;4908693;28;20409;-62
2021/03/22 03:07:47;;;;;;;34.97;5.43;;;;;;;;;;4906392;28;20074;-62
2021/03/22 03:10:16;;;;;;;34.13;4.85;;;;;;;;;;4911687;28;20509;-62
2021/03/22 03:12:42;;;;;;;29.15;5.85;;;;;;;;;;4907225;28;20135;-62
2021/03/22 03:15:10;;;;;;;22.35;4.50;;;;;;;;;;4908373;28;20039;-62
2021/03/22 03:17:36;;;;;;;27.25;5.35;;;;;;;;;;4911328;28;20058;-62
2021/03/22 03:20:06;;;;;;;24.17;4.93;;;;;;;;;;4905583;28;20036;-62
2021/03/22 03:22:32;;;;;;;25.58;5.10;;;;;;;;;;4907566;28;20127;-62
2021/03/22 03:24:58;;;;;;;28.65;5.03;;;;;;;;;;4912837;28;20058;-62
2021/03/22 03:27:26;;;;;;;31.20;5.38;;;;;;;;;;4913751;28;20044;-61
2021/03/22 03:29:52;;;;;;;24.65;5.55;;;;;;;;;;4912382;28;20409;-62
2021/03/22 03:32:20;;;;;;;22.83;4.22;;;;;;;;;;4886324;28;20032;-62
2021/03/22 03:34:46;;;;;;;26.33;5.18;;;;;;;;;;4919357;28;20297;-62
2021/03/22 03:37:12;;;;;;;27.42;5.68;;;;;;;;;;4899651;28;20122;-63
2021/03/22 03:39:39;;;;;;;25.33;4.78;;;;;;;;;;4900799;28;20473;-62
2021/03/22 03:42:08;;;;;;;21.08;4.65;;;;;;;;;;4892493;28;20059;-62
2021/03/22 03:44:37;;;;;;;26.42;5.13;;;;;;;;;;4926795;28;20221;-62
2021/03/22 03:47:04;;;;;;;27.92;4.90;;;;;;;;;;4913964;28;20110;-61
2021/03/22 03:49:30;;;;;;;27.90;5.03;;;;;;;;;;4899304;28;20082;-61
2021/03/22 03:51:56;;;;;;;27.45;4.63;;;;;;;;;;4887868;28;20565;-63
2021/03/22 03:54:22;;;;;;;22.67;4.57;;;;;;;;;;4912485;28;20665;-61
2021/03/22 03:56:50;;;;;;;18.85;4.05;;;;;;;;;;4902852;28;20047;-62
2021/03/22 03:59:16;;;;;;;25.30;4.65;;;;;;;;;;4912225;28;20123;-62
2021/03/22 04:01:42;;;;;;;17.70;5.40;;;;;;;;;;4901403;28;20087;-63
2021/03/22 04:04:08;;;;;;;26.23;4.65;;;;;;;;;;4912050;28;20035;-62
2021/03/22 04:06:35;;;;;;;16.60;4.20;;;;;;;;;;4927353;28;20035;-63
2021/03/22 04:09:04;;;;;;;30.63;4.22;;;;;;;;;;4912401;28;20028;-62
2021/03/22 04:11:40;;;;;;;22.88;4.10;;;;;;;;;;4898737;28;20031;-62
2021/03/22 04:14:16;;;;;;;32.22;5.28;;;;;;;;;;4887356;28;23714;-62
2021/03/22 04:16:42;;;;;;;16.85;5.05;;;;;;;;;;4906104;28;20241;-62
2021/03/22 04:19:07;;;;;;;22.85;4.10;;;;;;;;;;4903676;28;20043;-62
2021/03/22 04:21:36;;;;;;;21.05;4.50;;;;;;;;;;4896706;28;20397;-63
2021/03/22 04:24:03;;;;;;;26.92;4.47;;;;;;;;;;4919835;28;20091;-62
2021/03/22 04:26:29;;;;;;;30.52;4.78;;;;;;;;;;4907237;28;20040;-62
2021/03/22 04:28:55;;;;;;;20.98;4.30;;;;;;;;;;4910273;28;20055;-63
2021/03/22 04:31:22;;;;;;;23.23;4.18;;;;;;;;;;4897615;29;20325;-63
2021/03/22 04:33:50;;;;;;;27.30;4.72;;;;;;;;;;4901208;28;20646;-62
2021/03/22 04:36:16;;;;;;;28.13;4.32;;;;;;;;;;4896421;28;20044;-63
2021/03/22 04:38:42;;;;;;;23.08;4.32;;;;;;;;;;4903478;28;20047;-63
2021/03/22 04:41:11;;;;;;;22.80;4.65;;;;;;;;;;4895264;28;20461;-62
2021/03/22 04:43:42;;;;;;;22.20;4.40;;;;;;;;;;4897634;28;20050;-62
2021/03/22 04:46:10;;;;;;;21.77;3.88;;;;;;;;;;4897374;28;20040;-63
2021/03/22 04:48:36;;;;;;;19.70;3.67;;;;;;;;;;4902435;28;20403;-61
2021/03/22 04:51:05;;;;;;;21.35;4.15;;;;;;;;;;4894852;28;20050;-62
2021/03/22 04:53:34;;;;;;;26.80;4.60;;;;;;;;;;4900178;28;20188;-63
2021/03/22 04:56:00;;;;;;;21.63;4.10;;;;;;;;;;4893048;28;20040;-63
2021/03/22 04:58:26;;;;;;;17.95;3.80;;;;;;;;;;4894895;28;20685;-63
2021/03/22 05:00:52;;;;;;;29.67;4.32;;;;;;;;;;4903161;28;20056;-62
2021/03/22 05:03:20;;;;;;;20.33;3.88;;;;;;;;;;4903330;28;20122;-62
2021/03/22 05:05:46;;;;;;;27.88;5.20;;;;;;;;;;4900155;28;20099;-62
2021/03/22 05:08:13;;;;;;;23.55;3.63;;;;;;;;;;4896969;28;20405;-64
2021/03/22 05:10:41;;;;;;;22.08;4.25;;;;;;;;;;4894606;28;20337;-62
2021/03/22 05:13:11;;;;;;;26.25;3.78;;;;;;;;;;4900022;28;20047;-62
2021/03/22 05:15:37;;;;;;;23.70;4.22;;;;;;;;;;4897587;28;20032;-62
2021/03/22 05:18:04;;;;;;;22.90;4.15;;;;;;;;;;4905237;28;20043;-63
2021/03/22 05:20:35;;;;;;;23.08;4.78;;;;;;;;;;4904284;28;20057;-63
2021/03/22 05:23:02;;;;;;;29.73;4.68;;;;;;;;;;4894543;28;20040;-63
2021/03/22 05:25:30;;;;;;;21.65;4.57;;;;;;;;;;4904456;28;20468;-63
2021/03/22 05:27:57;;;;;;;21.65;4.07;;;;;;;;;;4906853;28;20047;-63
2021/03/22 05:30:23;;;;;;;22.27;3.72;;;;;;;;;;4898611;28;20054;-63
2021/03/22 05:32:49;;;;;;;16.33;3.80;;;;;;;;;;4905159;28;20051;-63
2021/03/22 05:35:21;;;;;;;25.20;4.38;;;;;;;;;;4901239;28;20406;-67
2021/03/22 05:37:47;;;;;;;19.75;4.15;;;;;;;;;;4898478;28;20725;-62
2021/03/22 05:40:24;;;;;;;18.73;3.67;;;;;;;;;;4903887;28;20044;-62
2021/03/22 05:42:54;;;;;;;19.30;3.33;;;;;;;;;;4911543;28;20038;-63
2021/03/22 05:45:28;;;;;;;20.50;3.50;;;;;;;;;;4909047;28;20067;-63
2021/03/22 05:48:02;;;;;;;22.52;3.08;;;;;;;;;;4900146;28;20136;-64
2021/03/22 05:50:31;;;;;;;22.73;3.15;;;;;;;;;;4899834;28;20091;-62
2021/03/22 05:53:07;;;;;;;19.88;3.20;;;;;;;;;;4899041;28;20496;-64
2021/03/22 05:55:39;;;;;;;18.92;3.22;;;;;;;;;;4901817;28;20433;-63
2021/03/22 05:58:17;;;;;;;21.42;3.40;;;;;;;;;;4915105;28;20040;-63
2021/03/22 06:01:00;;;;;;;21.90;3.78;;;;;;;;;;4906021;28;20091;-63
2021/03/22 06:03:36;;;;;;;13.48;2.97;;;;;;;;;;4907595;29;20071;-63
2021/03/22 06:06:21;;;;;;;14.07;2.63;;;;;;;;;;4905873;28;20051;-63
2021/03/22 06:08:56;;;;;;;14.18;3.00;;;;;;;;;;4909877;28;20040;-63
2021/03/22 06:11:44;;;;;;;10.00;2.60;;;;;;;;;;4902297;28;20236;-62
2021/03/22 06:14:33;;;;;;;16.55;2.70;;;;;;;;;;4905969;28;20046;-62
2021/03/22 06:17:02;;;;;;;15.65;2.97;;;;;;;;;;4911195;28;20040;-62
2021/03/22 06:19:28;;;;;;;19.10;3.42;;;;;;;;;;4906111;28;20557;-62
2021/03/22 06:21:56;;;;;;;9.65;2.50;;;;;;;;;;4912290;28;20402;-62
2021/03/22 06:24:24;;;;;;;23.42;3.03;;;;;;;;;;4907350;28;20248;-62
2021/03/22 06:26:51;;;;;;;20.45;2.63;;;;;;;;;;4911244;28;20134;-62
2021/03/22 06:29:24;;;;;;;16.77;3.15;;;;;;;;;;4900848;28;20043;-62
2021/03/22 06:31:52;;;;;;;16.73;2.85;;;;;;;;;;4896803;28;20039;-63
2021/03/22 06:34:31;;;;;;;19.13;3.50;;;;;;;;;;4907867;28;20048;-63
2021/03/22 06:36:57;;;;;;;14.07;2.78;;;;;;;;;;4915788;28;20046;-63
2021/03/22 06:39:23;;;;;;;14.02;2.80;;;;;;;;;;4916972;28;20040;-62
2021/03/22 06:41:52;;;;;;;11.68;2.80;;;;;;;;;;4917245;28;20258;-63
2021/03/22 06:44:19;;;;;;;13.02;2.80;;;;;;;;;;4915515;28;20094;-63
2021/03/22 06:47:00;;;;;;;10.43;2.50;;;;;;;;;;4914288;28;20127;-63
2021/03/22 06:49:27;;;;;;;16.88;2.00;;;;;;;;;;4913314;28;20508;-63
2021/03/22 06:51:57;;;;;;;16.65;2.55;;;;;;;;;;4912233;28;20048;-63
2021/03/22 06:54:44;;;;;;;10.30;2.10;;;;;;;;;;4922794;28;20039;-63
2021/03/22 06:57:14;;;;;;;11.73;2.15;;;;;;;;;;4923839;28;20421;-63
2021/03/22 07:02:39;;;;;;;9.65;2.38;;;;;;;;;;4903564;28;20043;-64
2021/03/22 07:05:17;;;;;;;10.35;2.25;;;;;;;;;;4919023;28;20040;-64
2021/03/22 07:08:02;;;;;;;10.07;2.03;;;;;;;;;;4949590;28;20033;-64
2021/03/22 07:10:31;;;;;;;11.77;2.42;;;;;;;;;;4909429;28;20044;-64
2021/03/22 07:13:23;;;;;;;7.57;1.80;;;;;;;;;;4909782;28;20174;-64
2021/03/22 07:15:50;;;;;;;8.45;2.00;;;;;;;;;;4905233;28;20901;-65
2021/03/22 07:18:18;;;;;;;9.73;2.45;;;;;;;;;;4916367;28;20039;-64
2021/03/22 07:20:46;;;;;;;9.40;2.15;;;;;;;;;;4913856;28;20098;-64
2021/03/22 07:23:23;;;;;;;8.13;2.00;;;;;;;;;;4899296;28;20070;-64
2021/03/22 07:25:53;;;;;;;12.77;2.17;;;;;;;;;;4908890;28;20036;-64
2021/03/22 07:28:35;;;;;;;6.65;1.98;;;;;;;;;;4912443;28;20040;-64
2021/03/22 07:31:06;;;;;;;10.50;2.03;;;;;;;;;;4902375;28;20044;-65
2021/03/22 07:33:44;;;;;;;9.35;2.47;;;;;;;;;;4910791;28;20123;-66
2021/03/22 07:36:19;;;;;;;14.02;2.92;;;;;;;;;;4904990;28;20244;-64
2021/03/22 07:38:48;;;;;;;9.18;2.20;;;;;;;;;;4914196;28;20047;-64
2021/03/22 07:41:24;;;;;;;9.73;2.17;;;;;;;;;;4893611;28;20054;-64
2021/03/22 07:43:55;;;;;;;11.30;2.55;;;;;;;;;;4910784;28;20508;-64
2021/03/22 07:46:47;;;;;;;6.10;2.17;;;;;;;;;;4910414;28;20040;-64
2021/03/22 07:49:20;;;;;;;17.00;3.00;;;;;;;;;;4899980;28;20106;-65
2021/03/22 07:51:49;;;;;;;8.43;2.63;;;;;;;;;;4910091;28;20078;-65
2021/03/22 07:54:33;;;;;;;9.23;2.38;;;;;;;;;;4919300;28;20051;-65
2021/03/22 07:57:08;;;;;;;12.85;2.30;;;;;;;;;;4906883;28;20074;-64
2021/03/22 07:59:36;;;;;;;12.30;2.63;;;;;;;;;;4902542;28;20058;-65
2021/03/22 08:02:18;;;;;;;14.45;3.17;;;;;;;;;;4903589;28;20090;-65
2021/03/22 08:04:53;;;;;;;7.97;2.38;;;;;;;;;;4904365;28;20528;-64
2021/03/22 08:07:25;;;;;;;12.65;2.42;;;;;;;;;;4902707;28;20035;-65
2021/03/22 08:10:04;;;;;;;12.05;2.53;;;;;;;;;;4905451;28;20244;-64
2021/03/22 08:12:34;;;;;;;8.70;2.40;;;;;;;;;;4907349;28;20058;-65
2021/03/22 08:15:29;;;;;;;13.68;2.30;;;;;;;;;;4907799;28;20707;-64
2021/03/22 08:18:02;;;;;;;10.85;2.25;;;;;;;;;;4909693;29;20062;-65
2021/03/22 08:20:31;;;;;;;13.45;2.70;;;;;;;;;;4902456;28;20494;-64
2021/03/22 08:23:08;;;;;;;11.32;2.45;;;;;;;;;;4904899;28;20304;-65
2021/03/22 08:25:50;;;;;;;10.75;2.33;;;;;;;;;;4912441;28;20131;-64
2021/03/22 08:28:38;;;;;;;7.50;1.92;;;;;;;;;;4911508;28;20555;-65
2021/03/22 08:31:06;;;;;;;13.05;2.33;;;;;;;;;;4911486;28;20411;-64
2021/03/22 08:33:41;;;;;;;8.13;2.08;;;;;;;;;;4909119;28;20040;-64
2021/03/22 08:36:22;;;;;;;8.75;1.88;;;;;;;;;;4904819;28;20406;-64
2021/03/22 08:38:52;;;;;;;12.07;2.45;;;;;;;;;;4909856;28;20040;-65
2021/03/22 08:41:41;;;;;;;13.70;2.30;;;;;;;;;;4905892;28;20267;-65
2021/03/22 08:44:28;;;;;;;17.80;2.65;;;;;;;;;;4903835;28;20054;-64
2021/03/22 08:47:13;;;;;;;14.45;2.30;;;;;;;;;;4901357;28;20452;-64
2021/03/22 08:49:56;;;;;;;14.15;2.40;;;;;;;;;;4904388;28;20028;-65
2021/03/22 08:52:35;;;;;;;16.58;1.90;;;;;;;;;;4912715;28;20106;-64
2021/03/22 08:55:04;;;;;;;8.65;2.10;;;;;;;;;;4904872;28;20043;-65
2021/03/22 08:57:33;;;;;;;11.73;2.05;;;;;;;;;;4921061;28;20182;-65
2021/03/22 09:00:10;;;;;;;13.43;2.00;;;;;;;;;;4916854;28;20090;-64
2021/03/22 09:02:36;;;;;;;8.15;1.85;;;;;;;;;;4909673;28;20586;-65
2021/03/22 09:05:19;;;;;;;4.90;2.13;;;;;;;;;;4915613;28;20100;-64
2021/03/22 09:07:45;;;;;;;5.75;1.85;;;;;;;;;;4918526;28;20098;-64
2021/03/22 09:10:38;;;;;;;4.25;2.15;;;;;;;;;;4909410;28;20039;-65
2021/03/22 09:13:06;;;;;;;4.45;1.55;;;;;;;;;;4911674;28;20039;-65
2021/03/22 09:15:39;;;;;;;5.93;1.45;;;10.30;58.80;;;;;;4920268;28;20110;-64
2021/03/22 09:18:04;;;;;;;5.28;1.55;;;14.20;57.60;;;;;;4916886;28;20401;-65
2021/03/22 09:20:33;;;;;;;10.10;1.85;;;14.40;56.40;;;;;;4919632;28;20031;-65
2021/03/22 09:22:59;;;;;;;4.93;1.65;;;;;;;;;;4904766;28;20827;-65
2021/03/22 09:25:46;;;;;;;3.83;1.50;;;;;;;;;;4918689;28;20135;-65
2021/03/22 09:28:21;;;;;;;6.38;1.33;;;;;;;;;;4905194;28;20047;-65
2021/03/22 09:31:05;;;;;;;5.28;1.50;;;;;;;;;;4915816;28;20032;-65
2021/03/22 09:33:49;;;;;;;8.48;1.40;;;;;;;;;;4907866;28;20554;-65
2021/03/22 09:36:33;;;;;;;6.50;1.35;;;;;;;;;;4915341;28;20044;-65
2021/03/22 09:39:01;;;;;;;6.00;1.20;;;;;;;;;;4920552;28;20110;-65
2021/03/22 09:42:03;;;;;;;5.18;1.48;;;14.40;55.40;;;;;;4902823;28;20044;-65
2021/03/22 09:44:57;;;;;;;3.40;1.27;;;15.50;54.30;;;;;;4921414;28;20035;-65
2021/03/22 09:47:39;;;;;;;7.20;1.27;;;15.70;53.40;;;;;;4904461;28;20402;-65
2021/03/22 09:50:24;;;;;;;5.95;1.70;;;15.70;53.00;;;;;;4914489;28;20115;-65
2021/03/22 09:52:53;;;;;;;2.45;1.25;;;15.50;52.30;;;;;;4893834;28;20194;-65
2021/03/22 09:55:42;;;;;;;4.63;1.60;;;15.30;52.30;;;;;;4907272;28;20117;-65
2021/03/22 09:58:43;;;;;;;5.05;1.50;;;15.00;53.00;;;;;;4911342;28;20043;-65
2021/03/22 10:01:35;;;;;;;4.72;1.58;;;14.80;53.00;;;;;;4906000;28;20047;-65
2021/03/22 10:04:17;;;;;;;6.70;1.23;;;14.60;53.40;;;;;;4906804;28;20048;-65
2021/03/22 10:06:55;;;;;;;4.53;1.38;;;14.60;53.60;;;;;;4914353;28;20072;-65
2021/03/22 10:10:00;;;;;;;6.32;1.67;;;14.50;53.30;;;;;;4912385;28;20050;-65
2021/03/22 10:12:40;;;;;;;5.50;1.38;;;14.40;53.30;;;;;;4903979;28;20254;-65
2021/03/22 10:15:20;;;;;;;3.33;1.58;;;14.20;53.30;;;;;;4903933;28;20047;-65
2021/03/22 10:18:03;;;;;;;6.20;1.42;;;14.20;53.90;;;;;;4909809;28;20052;-64
2021/03/22 10:20:41;;;;;;;10.55;1.70;;;14.20;54.20;;;;;;4907345;28;20041;-64
2021/03/22 10:23:20;;;;;;;5.90;1.45;;;14.30;54.60;;;;;;4909124;28;20075;-64
2021/03/22 10:25:47;;;;;;;2.72;1.50;;;14.50;54.80;;;;;;4906930;29;20045;-65
2021/03/22 10:28:25;;;;;;;5.72;1.73;;;14.80;54.30;;;;;;4909003;28;20528;-65
2021/03/22 10:30:57;;;;;;;3.08;1.45;;;15.00;53.50;;;;;;4906435;28;20056;-65
2021/03/22 10:33:23;;;;;;;4.43;1.50;;;15.00;53.00;;;;;;4909220;28;20047;-65
2021/03/22 10:35:52;;;;;;;6.07;1.67;;;14.90;52.60;;;;;;4914840;28;20066;-65
2021/03/22 10:38:37;;;;;;;6.70;2.70;;;14.80;52.60;;;;;;4904728;28;20040;-65
2021/03/22 10:41:24;;;;;;;6.05;1.52;;;14.70;52.80;;;;;;4902495;28;20090;-65
2021/03/22 10:43:56;;;;;;;8.57;1.70;;;14.60;52.70;;;;;;4907498;28;20107;-65
2021/03/22 10:46:26;;;;;;;11.32;2.00;;;14.50;52.70;;;;;;4901650;28;20099;-65
2021/03/22 10:49:01;;;;;;;13.35;2.28;;;14.40;52.50;;;;;;4901311;28;20055;-65
2021/03/22 10:51:49;;;;;;;13.90;2.13;;;14.20;52.30;;;;;;4890439;28;20526;-65
2021/03/22 10:54:17;;;;;;;8.68;2.13;;;14.10;52.70;;;;;;4903872;28;20044;-64
2021/03/22 10:56:51;;;;;;;12.65;2.58;;;;;;;;;;4907165;28;20043;-64
2021/03/22 10:59:26;;;;;;;6.47;1.88;;;;;;;;;;4907268;28;20718;-64
2021/03/22 11:01:53;;;;;;;6.72;2.03;;;;;;;;;;4901096;28;20805;-64
2021/03/22 11:04:27;;;;;;;8.48;1.85;;;14.00;53.20;;;;;;4907196;28;20087;-64
2021/03/22 11:06:53;;;;;;;11.75;2.35;;;14.10;53.90;;;;;;4912244;28;20058;-64
2021/03/22 11:09:23;;;;;;;6.72;1.50;;;14.20;53.30;;;;;;4904422;28;20055;-64
2021/03/22 11:11:50;;;;;;;8.80;1.83;;;14.30;53.20;;;;;;4902995;28;20414;-64
2021/03/22 11:14:19;;;;;;;9.15;2.05;;;14.40;53.20;;;;;;4910052;28;21097;-64
2021/03/22 11:16:47;;;;;;;4.55;1.60;;;14.50;53.00;;;;;;4896274;28;20165;-64
2021/03/22 11:19:25;;;;;;;9.52;1.90;;;14.50;52.80;;;;;;4906900;28;20202;-64
2021/03/22 11:21:51;;;;;;;7.32;1.40;;;14.50;52.20;;;;;;4904229;28;20100;-64
2021/03/22 11:24:34;;;;;;;5.88;1.50;;;14.50;51.60;;;;;;4904057;28;20071;-64
2021/03/22 11:27:02;;;;;;;8.80;1.60;;;14.40;51.50;;;;;;4904928;28;20130;-64
2021/03/22 11:29:27;;;;;;;7.53;1.70;;;14.30;51.70;;;;;;4900763;28;20402;-64
2021/03/22 11:32:05;;;;;;;8.73;1.65;;;14.30;51.80;;;;;;4903500;28;20074;-64
2021/03/22 11:34:45;;;;;;;8.43;1.77;;;14.30;52.00;;;;;;4906229;28;20036;-64
2021/03/22 11:37:22;;;;;;;4.72;1.63;;;14.30;51.80;;;;;;4906887;28;20066;-64
2021/03/22 11:40:10;;;;;;;10.55;2.03;;;14.20;51.70;;;;;;4909477;28;20036;-64
2021/03/22 11:42:50;;;;;;;6.63;1.73;;;14.20;51.80;;;;;;4905398;28;20039;-64
2021/03/22 11:45:45;;;;;;;8.48;1.70;;;14.20;51.80;;;;;;4903733;28;20532;-64
2021/03/22 11:48:29;;;;;;;6.07;1.73;;;14.20;52.10;;;;;;4909212;28;20602;-64
2021/03/22 11:50:57;;;;;;;11.82;2.28;;;14.20;51.70;;;;;;4904875;28;20481;-64
2021/03/22 11:53:25;;;;;;;13.57;1.92;;;14.20;52.10;;;;;;4904965;28;20132;-65
2021/03/22 11:55:57;;;;;;;7.43;1.77;;;;;;;;;;4899531;28;22065;-64
2021/03/22 11:58:39;;;;;;;10.38;1.90;;;14.30;51.80;;;;;;4904610;28;20473;-64
2021/03/22 12:01:18;;;;;;;9.55;2.03;;;14.40;51.70;;;;;;4902288;28;20054;-64
2021/03/22 12:03:47;;;;;;;7.15;2.15;;;14.50;51.90;;;;;;4906081;28;20046;-65
2021/03/22 12:06:20;;;;;;;7.90;1.50;;;14.60;51.20;;;;;;4905280;28;20063;-64
2021/03/22 12:08:48;;;;;;;6.30;2.10;;;14.70;51.20;;;;;;4903896;28;20040;-64
2021/03/22 12:11:31;;;;;;;8.82;2.55;;;14.70;50.80;;;;;;4907578;28;20432;-64
2021/03/22 12:13:59;;;;;;;8.93;1.90;;;14.80;50.80;;;;;;4904960;28;20035;-64
2021/03/22 12:16:43;;;;;;;8.52;2.00;;;14.70;50.50;;;;;;4906878;28;20787;-64
2021/03/22 12:19:35;;;;;;;8.35;2.20;;;14.70;50.60;;;;;;4908759;28;20035;-64
2021/03/22 12:22:00;;;;;;;10.40;2.00;;;14.70;50.60;;;;;;4901213;28;20040;-64
2021/03/22 12:24:26;;;;;;;8.73;2.25;;;14.80;50.60;;;;;;4910921;28;20171;-64
2021/03/22 12:26:52;;;;;;;10.98;1.67;;;14.90;50.70;;;;;;4914493;28;20078;-64
2021/03/22 12:29:17;;;;;;;16.30;2.28;;;15.00;50.40;;;;;;4918388;28;20055;-64
2021/03/22 12:31:48;;;;;;;9.07;1.92;;;15.20;50.10;;;;;;4904272;28;20103;-64
2021/03/22 12:34:19;;;;;;;8.63;2.00;;;15.30;50.00;;;;;;4905031;28;20046;-64
2021/03/22 12:36:45;;;;;;;6.60;1.77;;;15.40;49.80;;;;;;4909006;28;20083;-64
2021/03/22 12:39:24;;;;;;;10.57;2.38;;;15.50;49.30;;;;;;4911091;28;20044;-64
2021/03/22 12:41:52;;;;;;;8.35;2.25;;;15.50;49.20;;;;;;4906624;28;20590;-64
2021/03/22 12:44:18;;;;;;;12.43;2.40;;;15.30;49.10;;;;;;4912676;28;20370;-64
2021/03/22 12:46:44;;;;;;;8.20;2.83;;;15.20;49.20;;;;;;4907420;28;20046;-64
2021/03/22 12:49:16;;;;;;;10.68;2.10;;;15.10;49.50;;;;;;4914261;28;20059;-65
2021/03/22 12:51:41;;;;;;;9.23;3.08;;;15.10;49.50;;;;;;4902133;28;20036;-64
2021/03/22 12:54:09;;;;;;;7.88;2.35;;;15.20;49.90;;;;;;4914140;28;20721;-64
2021/03/22 12:56:35;;;;;;;14.27;2.17;;;15.40;50.00;;;;;;4913645;28;20330;-64
2021/03/22 12:59:01;;;;;;;14.52;2.40;;;15.60;49.60;;;;;;4908867;28;20032;-65
2021/03/22 13:01:27;;;;;;;12.50;2.35;;;15.60;49.40;;;;;;4919628;23;20058;-64
2021/03/22 13:03:54;;;;;;;12.25;2.58;;;15.70;49.10;;;;;;4908802;29;20460;-64
2021/03/22 13:06:24;;;;;;;11.90;2.58;;;15.70;48.80;;;;;;4905308;28;20057;-64
2021/03/22 13:08:51;;;;;;;10.35;2.17;;;15.60;48.50;;;;;;4909396;28;20355;-64
2021/03/22 13:11:22;;;;;;;8.60;2.45;;;15.50;48.80;;;;;;4896183;28;20437;-64
2021/03/22 13:13:48;;;;;;;12.52;2.45;;;15.60;49.00;;;;;;4906892;28;20116;-64
2021/03/22 13:16:21;;;;;;;15.50;2.85;;;15.60;49.00;;;;;;4901779;28;20040;-63
2021/03/22 13:18:49;;;;;;;14.85;2.20;;;15.60;48.80;;;;;;4907965;28;20095;-64
2021/03/22 13:21:17;;;;;;;10.43;2.42;;;15.70;48.60;;;;;;4918179;28;20048;-63
2021/03/22 13:23:46;;;;;;;13.27;2.10;;;15.70;48.60;;;;;;4904403;28;20513;-64
2021/03/22 13:26:20;;;;;;;12.95;1.92;;;15.80;48.60;;;;;;4910202;28;20123;-64
2021/03/22 13:28:52;;;;;;;11.50;2.40;;;15.90;47.70;;;;;;4919435;23;20087;-63
2021/03/22 13:31:18;;;;;;;9.90;1.90;;;16.00;47.60;;;;;;4903598;28;20094;-63
2021/03/22 13:33:44;;;;;;;12.20;1.85;;;;;;;;;;4907887;28;20039;-62
2021/03/22 13:36:16;;;;;;;6.10;1.77;;;16.10;47.60;;;;;;4924972;28;20464;-62
2021/03/22 13:38:42;;;;;;;9.75;1.95;;;16.10;46.60;;;;;;4906248;28;20051;-63
2021/03/22 13:41:28;;;;;;;9.60;2.25;;;16.00;46.50;;;;;;4903099;28;20048;-63
2021/03/22 13:43:57;;;;;;;7.78;1.90;;;16.00;47.00;;;;;;4922118;28;20075;-62
2021/03/22 13:46:27;;;;;;;5.82;1.58;;;16.00;46.60;;;;;;4905672;28;20107;-62
2021/03/22 13:48:53;;;;;;;7.63;1.77;;;15.90;46.40;;;;;;4910404;28;20099;-62
2021/03/22 13:51:32;;;;;;;7.88;1.63;;;15.90;46.50;;;;;;4904123;28;20417;-61
2021/03/22 13:54:05;;;;;;;5.68;1.40;;;15.80;46.20;;;;;;4905646;28;20040;-61
2021/03/22 13:56:33;;;;;;;6.30;1.55;;;15.80;46.30;;;;;;4907279;28;20055;-62
2021/03/22 13:58:59;;;;;;;3.47;1.40;;;15.80;46.60;;;;;;4918914;28;20051;-62
2021/03/22 14:01:25;;;;;;;6.95;1.58;;;15.90;46.50;;;;;;4896716;28;20036;-62
2021/03/22 14:03:51;;;;;;;6.57;1.48;;;16.00;46.10;;;;;;4903290;28;20140;-63
2021/03/22 14:06:18;;;;;;;10.55;1.35;;;16.10;45.50;;;;;;4905197;28;20040;-62
2021/03/22 14:08:46;;;;;;;8.73;2.00;;;16.10;45.30;;;;;;4907343;28;20075;-61
2021/03/22 14:11:13;;;;;;;9.80;1.60;;;16.10;45.20;;;;;;4903580;28;20122;-63
2021/03/22 14:13:41;;;;;;;8.90;1.45;;;16.10;45.10;;;;;;4916263;28;20110;-62
2021/03/22 14:16:09;;;;;;;8.80;1.77;;;16.00;44.90;;;;;;4911510;28;20059;-62